San Ramon de la Nueva Oran, Argentina
Current Conditions -  °F | °C
As of 5:00 PM on Thursday 23 Oct 2014 (Local Time) from SLYA Reporting Station
Broken Clouds Broken Clouds  
Wind Chill: 82°   Ceiling: 20000
Heat Index: 85°   Visibility: 6mi
Dew Point: 68°   Wind: 9mph
Humidity: 62%   Direction: 180°S
Pressure: 29.88"   Gusts: NA
Location:  23.13°S, 64.33°W
Report Text: SLYA 232000Z 18008KT 9999 FEW025 SCT070 BKN200 28/20 Q1012
Loading
Personal Weather Stations






























Interactive Weather Map New forecast layout! Learn more

10-Day Weather Forecast

Advertisements
Track Severe Weather on mobile